createdAt,value
2022-11-05T00:00:01.861Z,9.49
2022-11-05T00:02:48.497Z,9.59
2022-11-05T00:05:33.795Z,9.71
2022-11-05T00:08:21.393Z,9.63
2022-11-05T00:10:49.576Z,9.64
2022-11-05T00:13:37.738Z,9.58
2022-11-05T00:16:23.545Z,9.62
2022-11-05T00:22:04.180Z,9.45
2022-11-05T00:24:49.507Z,9.34
2022-11-05T00:27:19.860Z,9.28
2022-11-05T00:29:47.751Z,9.38
2022-11-05T00:32:15.624Z,9.23
2022-11-05T00:34:43.698Z,9.10
2022-11-05T00:37:12.992Z,9.00
2022-11-05T00:39:40.891Z,9.40
2022-11-05T00:42:26.362Z,9.26
2022-11-05T00:45:03.383Z,9.09
2022-11-05T00:47:49.690Z,9.11
2022-11-05T00:50:18.346Z,9.28
2022-11-05T00:52:57.103Z,9.03
2022-11-05T00:55:26.372Z,9.25
2022-11-05T00:57:54.251Z,9.34
2022-11-05T01:00:23.335Z,9.21
2022-11-05T01:02:51.339Z,9.16
2022-11-05T01:05:19.619Z,9.16
2022-11-05T01:07:48.907Z,9.39
2022-11-05T01:10:16.987Z,9.45
2022-11-05T01:12:44.848Z,9.43
2022-11-05T01:15:12.777Z,9.59
2022-11-05T01:17:40.667Z,9.62
2022-11-05T01:20:09.355Z,9.65
2022-11-05T01:22:37.245Z,9.59
2022-11-05T01:25:08.505Z,9.03
2022-11-05T01:27:37.458Z,9.11
2022-11-05T01:30:07.168Z,9.08
2022-11-05T01:32:36.003Z,9.17
2022-11-05T01:35:04.237Z,9.02
2022-11-05T01:37:32.115Z,9.00
2022-11-05T01:40:00.016Z,8.74
2022-11-05T01:42:29.776Z,8.38
2022-11-05T01:45:01.463Z,8.74
2022-11-05T01:47:51.422Z,8.68
2022-11-05T01:50:29.232Z,8.58
2022-11-05T01:53:02.025Z,8.93
2022-11-05T01:55:34.795Z,8.72
2022-11-05T01:58:07.292Z,8.71
2022-11-05T02:00:35.877Z,8.71
2022-11-05T02:03:03.984Z,8.96
2022-11-05T02:05:34.131Z,8.65
2022-11-05T02:08:02.278Z,8.64
2022-11-05T02:10:30.338Z,8.76
2022-11-05T02:12:58.278Z,8.80
2022-11-05T02:15:38.588Z,8.60
2022-11-05T02:18:21.347Z,8.50
2022-11-05T02:21:00.908Z,8.48
2022-11-05T02:24:08.797Z,8.45
2022-11-05T02:26:58.649Z,8.32
2022-11-05T02:30:10.788Z,8.34
2022-11-05T02:33:08.961Z,8.57
2022-11-05T02:35:54.181Z,8.75
2022-11-05T02:38:35.989Z,8.70
2022-11-05T02:41:10.110Z,8.70
2022-11-05T02:43:48.675Z,8.46
2022-11-05T02:46:27.646Z,8.16
2022-11-05T02:49:05.851Z,8.27
2022-11-05T02:51:40.188Z,8.46
2022-11-05T02:54:16.404Z,8.30
2022-11-05T02:56:47.898Z,8.33
2022-11-05T02:59:16.545Z,8.33
2022-11-05T03:01:47.438Z,8.41
2022-11-05T03:04:20.507Z,8.18
2022-11-05T03:07:23.085Z,8.33
2022-11-05T03:10:26.218Z,8.28
2022-11-05T03:13:05.803Z,8.39
2022-11-05T03:15:48.839Z,8.21
2022-11-05T03:18:26.534Z,8.15
2022-11-05T03:21:03.289Z,7.85
2022-11-05T03:23:38.565Z,7.78
2022-11-05T03:26:11.614Z,7.92
2022-11-05T03:28:45.185Z,7.76
2022-11-05T03:31:15.373Z,7.96
2022-11-05T03:33:46.069Z,8.21
2022-11-05T03:36:21.658Z,8.05
2022-11-05T03:38:52.580Z,7.87
2022-11-05T03:41:22.907Z,7.94
2022-11-05T03:43:53.118Z,7.91
2022-11-05T03:46:26.501Z,7.87
2022-11-05T03:48:58.306Z,7.45
2022-11-05T03:51:37.082Z,7.66
2022-11-05T03:54:06.572Z,7.84
2022-11-05T03:56:41.075Z,7.72
2022-11-05T03:59:11.262Z,7.62
2022-11-05T04:01:40.533Z,7.73
2022-11-05T04:04:09.670Z,7.93
2022-11-05T04:06:56.591Z,8.05
2022-11-05T04:09:42.125Z,8.05
2022-11-05T04:12:28.626Z,7.93
2022-11-05T04:14:57.211Z,7.91
2022-11-05T04:17:24.228Z,7.76
2022-11-05T04:20:09.624Z,7.74
2022-11-05T04:22:56.407Z,7.75
2022-11-05T04:25:24.507Z,7.65
2022-11-05T04:27:52.954Z,7.47
2022-11-05T04:30:20.677Z,7.32
2022-11-05T04:33:04.437Z,7.58
2022-11-05T04:35:34.127Z,7.81
2022-11-05T04:38:03.840Z,7.69
2022-11-05T04:40:31.959Z,7.51
2022-11-05T04:42:59.905Z,7.51
2022-11-05T04:45:29.880Z,7.42
2022-11-05T04:47:57.809Z,7.34
2022-11-05T04:50:25.854Z,7.37
2022-11-05T04:52:53.913Z,7.25
2022-11-05T04:55:23.319Z,7.45
2022-11-05T04:57:52.289Z,7.67
2022-11-05T05:00:21.689Z,7.45
2022-11-05T05:02:50.036Z,7.24
2022-11-05T05:05:18.856Z,7.14
2022-11-05T05:07:46.784Z,7.11
2022-11-05T05:10:15.210Z,6.91
2022-11-05T05:12:44.530Z,6.87
2022-11-05T05:15:13.821Z,7.01
2022-11-05T05:17:41.814Z,6.98
2022-11-05T05:20:27.387Z,7.40
2022-11-05T05:22:55.655Z,7.05
2022-11-05T05:25:23.841Z,7.44
2022-11-05T05:27:53.293Z,7.52
2022-11-05T05:30:21.158Z,7.62
2022-11-05T05:32:49.022Z,7.42
2022-11-05T05:35:17.524Z,7.37
2022-11-05T05:37:45.565Z,7.27
2022-11-05T05:40:13.798Z,7.23
2022-11-05T05:42:43.342Z,7.16
2022-11-05T05:45:13.647Z,7.17
2022-11-05T05:47:41.562Z,7.15
2022-11-05T05:50:09.682Z,7.21
2022-11-05T05:52:37.612Z,7.48
2022-11-05T05:55:06.130Z,7.43
2022-11-05T05:57:35.193Z,7.65
2022-11-05T06:00:03.067Z,7.66
2022-11-05T06:02:33.347Z,7.67
2022-11-05T06:05:01.507Z,7.78
2022-11-05T06:07:34.444Z,7.98
2022-11-05T06:10:06.466Z,8.11
2022-11-05T06:12:34.531Z,7.72
2022-11-05T06:15:02.546Z,8.18
2022-11-05T06:17:30.621Z,8.36
2022-11-05T06:19:59.891Z,8.45
2022-11-05T06:22:27.824Z,8.47
2022-11-05T06:24:55.682Z,8.25
2022-11-05T06:27:23.532Z,8.30
2022-11-05T06:29:51.499Z,8.35
2022-11-05T06:32:19.401Z,8.38
2022-11-05T06:34:47.358Z,8.44
2022-11-05T06:37:17.099Z,8.44
2022-11-05T06:39:45.018Z,8.28
2022-11-05T06:42:18.467Z,8.48
2022-11-05T06:44:47.249Z,8.41
2022-11-05T06:47:15.253Z,8.28
2022-11-05T06:49:43.170Z,8.33
2022-11-05T06:52:11.021Z,8.39
2022-11-05T06:54:40.811Z,8.48
2022-11-05T06:57:09.637Z,8.59
2022-11-05T06:59:37.737Z,8.59
2022-11-05T07:02:06.768Z,8.68
2022-11-05T07:04:34.933Z,8.81
2022-11-05T07:07:04.713Z,8.99
2022-11-05T07:09:32.595Z,9.04
2022-11-05T07:12:01.871Z,9.11
2022-11-05T07:14:29.749Z,9.28
2022-11-05T07:16:58.260Z,9.22
2022-11-05T07:19:26.148Z,9.22
2022-11-05T07:21:54.037Z,9.39
2022-11-05T07:24:21.925Z,9.54
2022-11-05T07:26:49.875Z,9.55
2022-11-05T07:29:19.297Z,9.63
2022-11-05T07:31:47.827Z,9.58
2022-11-05T07:34:15.896Z,9.71
2022-11-05T07:36:43.826Z,9.86
2022-11-05T07:39:11.730Z,9.98
2022-11-05T07:41:39.641Z,10.28
2022-11-05T07:44:07.687Z,10.19
2022-11-05T07:46:37.041Z,10.37
2022-11-05T07:49:05.163Z,10.52
2022-11-05T07:51:33.194Z,10.60
2022-11-05T07:54:01.258Z,10.95
2022-11-05T07:56:29.130Z,11.08
2022-11-05T07:58:57.113Z,11.39
2022-11-05T08:01:25.284Z,11.51
2022-11-05T08:03:54.895Z,11.74
2022-11-05T08:06:22.797Z,11.76
2022-11-05T08:08:50.658Z,11.83
2022-11-05T08:11:18.933Z,11.76
2022-11-05T08:13:46.852Z,11.73
2022-11-05T08:16:15.672Z,11.62
2022-11-05T08:18:44.661Z,11.43
2022-11-05T08:21:13.920Z,11.60
2022-11-05T08:23:42.972Z,11.70
2022-11-05T08:26:11.279Z,11.67
2022-11-05T08:28:39.247Z,11.61
2022-11-05T08:31:07.264Z,11.69
2022-11-05T08:33:35.212Z,12.08
2022-11-05T08:36:04.477Z,12.15
2022-11-05T08:38:33.793Z,12.49
2022-11-05T08:41:02.294Z,12.46
2022-11-05T08:43:30.164Z,12.86
2022-11-05T08:45:58.044Z,13.00
2022-11-05T08:48:26.006Z,12.84
2022-11-05T08:50:54.329Z,12.94
2022-11-05T08:53:22.212Z,13.35
2022-11-05T08:55:51.645Z,13.40
2022-11-05T08:58:20.868Z,13.33
2022-11-05T09:00:50.445Z,13.52
2022-11-05T09:03:19.203Z,13.43
2022-11-05T09:05:47.671Z,13.20
2022-11-05T09:08:18.374Z,13.41
2022-11-05T09:10:47.658Z,13.32
2022-11-05T09:13:19.681Z,13.67
2022-11-05T09:15:48.262Z,13.71
2022-11-05T09:18:17.203Z,13.93
2022-11-05T09:20:45.217Z,14.10
2022-11-05T09:23:15.815Z,13.94
2022-11-05T09:25:44.148Z,13.88
2022-11-05T09:28:16.778Z,13.94
2022-11-05T09:30:48.070Z,14.08
2022-11-05T09:33:18.848Z,14.28
2022-11-05T09:35:47.402Z,14.55
2022-11-05T09:38:18.772Z,14.54
2022-11-05T09:40:55.940Z,14.68
2022-11-05T09:43:31.679Z,14.81
2022-11-05T09:46:08.559Z,15.01
2022-11-05T09:48:39.174Z,14.80
2022-11-05T09:51:07.868Z,14.86
2022-11-05T09:53:40.630Z,14.65
2022-11-05T09:56:21.096Z,14.71
2022-11-05T09:58:53.048Z,14.79
2022-11-05T10:01:25.950Z,14.95
2022-11-05T10:04:01.372Z,14.99
2022-11-05T10:06:29.848Z,15.16
2022-11-05T10:09:05.038Z,14.90
2022-11-05T10:11:38.274Z,14.83
2022-11-05T10:14:14.971Z,14.98
2022-11-05T10:16:50.131Z,14.96
2022-11-05T10:19:23.984Z,15.08
2022-11-05T10:22:05.982Z,15.34
2022-11-05T10:24:34.406Z,15.05
2022-11-05T10:27:02.974Z,15.39
2022-11-05T10:29:34.380Z,15.51
2022-11-05T10:32:07.325Z,15.69
2022-11-05T10:34:39.270Z,15.78
2022-11-05T10:37:07.458Z,15.94
2022-11-05T10:39:35.906Z,16.15
2022-11-05T10:42:45.118Z,16.14
2022-11-05T10:45:23.871Z,16.17
2022-11-05T10:48:07.901Z,16.00
2022-11-05T10:50:35.809Z,16.09
2022-11-05T10:53:10.746Z,16.11
2022-11-05T10:55:42.642Z,15.89
2022-11-05T10:58:12.782Z,16.12
2022-11-05T11:00:41.162Z,16.31
2022-11-05T11:03:33.892Z,16.43
2022-11-05T11:06:03.804Z,16.36
2022-11-05T11:08:36.088Z,16.32
2022-11-05T11:11:06.289Z,16.68
2022-11-05T11:13:51.235Z,16.35
2022-11-05T11:16:22.495Z,16.22
2022-11-05T11:18:56.666Z,16.61
2022-11-05T11:21:26.178Z,16.86
2022-11-05T11:23:59.060Z,16.55
2022-11-05T11:26:29.140Z,16.69
2022-11-05T11:29:00.395Z,16.95
2022-11-05T11:31:30.432Z,16.84
2022-11-05T11:34:03.602Z,17.06
2022-11-05T11:36:37.114Z,17.18
2022-11-05T11:39:07.869Z,17.00
2022-11-05T11:41:41.906Z,17.03
2022-11-05T11:44:18.958Z,17.08
2022-11-05T11:46:49.869Z,17.22
2022-11-05T11:49:34.406Z,17.38
2022-11-05T11:52:05.905Z,17.39
2022-11-05T11:54:34.880Z,17.29
2022-11-05T11:57:03.454Z,17.44
2022-11-05T12:00:01.966Z,17.59
2022-11-05T12:02:46.162Z,17.40
2022-11-05T12:05:32.024Z,17.65
2022-11-05T12:08:09.977Z,17.54
2022-11-05T12:10:49.973Z,17.39
2022-11-05T12:13:45.754Z,17.45
2022-11-05T12:16:23.341Z,17.70
2022-11-05T12:19:02.555Z,17.48
2022-11-05T12:21:52.656Z,17.75
2022-11-05T12:24:41.876Z,17.92
2022-11-05T12:27:23.222Z,18.04
2022-11-05T12:29:58.519Z,17.78
2022-11-05T12:32:48.332Z,17.61
2022-11-05T12:35:44.176Z,17.78
2022-11-05T12:38:28.536Z,17.46
2022-11-05T12:41:10.741Z,17.17
2022-11-05T12:43:51.227Z,17.01
2022-11-05T12:46:27.437Z,17.42
2022-11-05T12:49:22.368Z,17.48
2022-11-05T12:52:06.837Z,17.69
2022-11-05T12:54:54.186Z,17.77
2022-11-05T12:57:24.307Z,17.69
2022-11-05T12:59:56.690Z,17.75
2022-11-05T13:02:31.577Z,17.88
2022-11-05T13:05:05.506Z,17.84
2022-11-05T13:07:36.265Z,17.76
2022-11-05T13:10:11.501Z,17.62
2022-11-05T13:12:42.298Z,17.87
2022-11-05T13:15:25.763Z,18.04
2022-11-05T13:17:56.185Z,17.81
2022-11-05T13:20:27.559Z,17.69
2022-11-05T13:23:01.105Z,17.24
2022-11-05T13:25:33.241Z,17.61
2022-11-05T13:28:08.040Z,17.63
2022-11-05T13:30:38.974Z,17.52
2022-11-05T13:33:13.653Z,17.29
2022-11-05T13:35:45.487Z,17.48
2022-11-05T13:38:39.186Z,17.41
2022-11-05T13:41:22.571Z,17.29
2022-11-05T13:44:06.456Z,17.16
2022-11-05T13:46:53.208Z,17.27
2022-11-05T13:49:47.446Z,17.31
2022-11-05T13:52:47.251Z,17.04
2022-11-05T13:55:44.126Z,17.26
2022-11-05T13:58:52.896Z,17.17
2022-11-05T14:01:40.197Z,17.01
2022-11-05T14:04:15.254Z,17.11
2022-11-05T14:06:44.035Z,16.80
2022-11-05T14:09:17.909Z,16.90
2022-11-05T14:11:52.441Z,17.05
2022-11-05T14:14:24.547Z,16.98
2022-11-05T14:16:54.328Z,17.10
2022-11-05T14:19:33.338Z,17.11
2022-11-05T14:22:01.414Z,16.58
2022-11-05T14:24:43.000Z,16.69
2022-11-05T14:27:53.709Z,16.80
2022-11-05T14:30:46.771Z,16.93
2022-11-05T14:33:31.493Z,16.84
2022-11-05T14:36:36.853Z,16.92
2022-11-05T14:39:24.853Z,16.79
2022-11-05T14:42:02.141Z,16.82
2022-11-05T14:44:31.932Z,16.74
2022-11-05T14:47:04.255Z,16.71
2022-11-05T14:49:34.986Z,16.59
2022-11-05T14:52:08.576Z,16.56
2022-11-05T14:54:42.743Z,16.51
2022-11-05T14:57:15.049Z,16.59
2022-11-05T15:00:01.033Z,16.55
2022-11-05T15:02:35.602Z,16.48
2022-11-05T15:05:38.096Z,16.42
2022-11-05T15:08:36.469Z,16.42
2022-11-05T15:11:12.720Z,16.24
2022-11-05T15:13:50.693Z,16.35
2022-11-05T15:16:24.689Z,16.27
2022-11-05T15:18:56.513Z,16.21
2022-11-05T15:21:26.037Z,15.94
2022-11-05T15:23:57.451Z,16.02
2022-11-05T15:26:31.249Z,16.04
2022-11-05T15:28:59.356Z,16.04
2022-11-05T15:31:34.381Z,15.96
2022-11-05T15:34:22.999Z,15.88
2022-11-05T15:36:53.997Z,15.81
2022-11-05T15:39:31.079Z,15.85
2022-11-05T15:42:00.526Z,15.83
2022-11-05T15:44:30.344Z,15.80
2022-11-05T15:47:23.190Z,15.79
2022-11-05T15:49:55.697Z,15.78
2022-11-05T15:52:25.565Z,15.69
2022-11-05T15:55:18.348Z,15.71
2022-11-05T15:57:50.868Z,15.68
2022-11-05T16:00:21.637Z,15.58
2022-11-05T16:02:56.191Z,15.39
2022-11-05T16:05:28.240Z,15.57
2022-11-05T16:07:59.149Z,15.57
2022-11-05T16:10:30.485Z,15.37
2022-11-05T16:12:58.601Z,15.45
2022-11-05T16:15:32.799Z,15.54
2022-11-05T16:18:01.528Z,15.55
2022-11-05T16:20:33.186Z,15.43
2022-11-05T16:23:03.276Z,15.51
2022-11-05T16:25:37.307Z,15.36
2022-11-05T16:28:07.310Z,15.24
2022-11-05T16:30:35.292Z,15.49
2022-11-05T16:33:08.493Z,15.33
2022-11-05T16:35:41.578Z,15.45
2022-11-05T16:38:15.661Z,15.41
2022-11-05T16:40:44.023Z,15.38
2022-11-05T16:43:19.636Z,15.37
2022-11-05T16:45:47.778Z,15.29
2022-11-05T16:48:17.129Z,15.24
2022-11-05T16:50:47.120Z,15.22
2022-11-05T16:53:18.164Z,15.22
2022-11-05T16:55:49.041Z,15.15
2022-11-05T16:58:21.144Z,15.09
2022-11-05T17:00:50.093Z,15.06
2022-11-05T17:03:18.047Z,14.60
2022-11-05T17:05:47.675Z,14.12
2022-11-05T17:08:16.917Z,13.76
2022-11-05T17:10:45.151Z,13.46
2022-11-05T17:13:16.053Z,13.35
2022-11-05T17:15:45.195Z,13.07
2022-11-05T17:18:18.207Z,12.94
2022-11-05T17:20:49.766Z,12.99
2022-11-05T17:23:19.383Z,12.73
2022-11-05T17:25:49.183Z,12.68
2022-11-05T17:28:18.198Z,12.80
2022-11-05T17:30:52.211Z,12.86
2022-11-05T17:33:22.742Z,12.73
2022-11-05T17:35:54.154Z,12.82
2022-11-05T17:38:23.745Z,13.04
2022-11-05T17:40:54.818Z,13.04
2022-11-05T17:43:22.717Z,12.90
2022-11-05T17:45:52.090Z,12.94
2022-11-05T17:48:20.842Z,12.97
2022-11-05T17:50:50.377Z,12.80
2022-11-05T17:53:20.583Z,12.80
2022-11-05T17:55:48.741Z,12.64
2022-11-05T17:58:17.450Z,13.05
2022-11-05T18:00:47.314Z,13.22
2022-11-05T18:03:16.026Z,13.34
2022-11-05T18:05:44.328Z,13.19
2022-11-05T18:08:12.716Z,13.39
2022-11-05T18:10:42.335Z,13.29
2022-11-05T18:13:11.375Z,13.17
2022-11-05T18:15:41.226Z,13.21
2022-11-05T18:18:10.033Z,13.24
2022-11-05T18:20:38.632Z,13.13
2022-11-05T18:23:06.528Z,13.38
2022-11-05T18:25:34.482Z,13.51
2022-11-05T18:28:03.900Z,13.61
2022-11-05T18:30:31.941Z,13.44
2022-11-05T18:32:59.858Z,13.17
2022-11-05T18:35:27.794Z,13.29
2022-11-05T18:37:55.664Z,13.22
2022-11-05T18:40:23.876Z,13.24
2022-11-05T18:42:51.777Z,13.02
2022-11-05T18:45:25.530Z,12.63
2022-11-05T18:47:56.433Z,12.99
2022-11-05T18:50:24.414Z,13.16
2022-11-05T18:52:52.302Z,12.83
2022-11-05T18:55:20.448Z,13.02
2022-11-05T18:57:48.444Z,13.10
2022-11-05T19:00:17.448Z,12.75
2022-11-05T19:02:46.933Z,12.91
2022-11-05T19:05:28.529Z,12.91
2022-11-05T19:07:56.814Z,12.68
2022-11-05T19:10:25.124Z,12.41
2022-11-05T19:12:53.179Z,12.69
2022-11-05T19:15:21.153Z,12.64
2022-11-05T19:17:50.415Z,12.31
2022-11-05T19:20:18.426Z,12.69
2022-11-05T19:22:46.330Z,12.58
2022-11-05T19:25:14.959Z,12.39
2022-11-05T19:27:43.688Z,12.65
2022-11-05T19:30:12.716Z,12.69
2022-11-05T19:32:40.597Z,12.60
2022-11-05T19:35:10.413Z,12.63
2022-11-05T19:37:38.334Z,12.46
2022-11-05T19:40:07.401Z,12.51
2022-11-05T19:42:35.282Z,12.11
2022-11-05T19:45:22.872Z,12.41
2022-11-05T19:47:51.129Z,12.00
2022-11-05T19:50:20.634Z,12.24
2022-11-05T19:52:48.519Z,12.00
2022-11-05T19:55:16.660Z,12.00
2022-11-05T19:57:45.014Z,12.23
2022-11-05T20:00:14.427Z,12.22
2022-11-05T20:02:45.910Z,11.71
2022-11-05T20:05:18.361Z,11.88
2022-11-05T20:07:52.745Z,11.70
2022-11-05T20:10:21.432Z,11.92
2022-11-05T20:12:49.353Z,11.99
2022-11-05T20:15:19.100Z,11.77
2022-11-05T20:17:50.168Z,11.70
2022-11-05T20:20:18.344Z,11.72
2022-11-05T20:22:47.748Z,11.48
2022-11-05T20:25:16.055Z,11.31
2022-11-05T20:27:43.982Z,11.60
2022-11-05T20:30:12.451Z,11.63
2022-11-05T20:32:40.399Z,11.38
2022-11-05T20:35:09.197Z,11.17
2022-11-05T20:37:37.125Z,11.26
2022-11-05T20:40:07.869Z,11.09
2022-11-05T20:42:37.120Z,11.08
2022-11-05T20:45:05.502Z,11.37
2022-11-05T20:47:33.614Z,11.19
2022-11-05T20:50:01.618Z,11.12
2022-11-05T20:52:29.530Z,11.36
2022-11-05T20:54:57.884Z,11.19
2022-11-05T20:57:27.125Z,11.10
2022-11-05T20:59:55.012Z,11.16
2022-11-05T21:02:23.002Z,11.27
2022-11-05T21:04:51.429Z,11.50
2022-11-05T21:07:19.294Z,11.49
2022-11-05T21:09:47.150Z,11.42
2022-11-05T21:12:18.579Z,11.37
2022-11-05T21:14:47.951Z,11.35
2022-11-05T21:17:15.882Z,11.32
2022-11-05T21:19:43.757Z,11.10
2022-11-05T21:22:15.537Z,11.06
2022-11-05T21:24:44.192Z,11.13
2022-11-05T21:27:12.053Z,10.88
2022-11-05T21:29:39.928Z,11.01
2022-11-05T21:32:09.188Z,10.75
2022-11-05T21:34:37.092Z,10.68
2022-11-05T21:37:05.637Z,10.09
2022-11-05T21:39:34.864Z,11.01
2022-11-05T21:42:03.514Z,11.02
2022-11-05T21:44:31.384Z,10.81
2022-11-05T21:46:59.440Z,10.89
2022-11-05T21:49:28.650Z,10.70
2022-11-05T21:52:14.198Z,10.71
2022-11-05T21:54:59.777Z,10.65
2022-11-05T21:57:45.151Z,10.63
2022-11-05T22:00:15.313Z,10.50
2022-11-05T22:02:43.380Z,10.37
2022-11-05T22:05:13.015Z,10.29
2022-11-05T22:07:41.275Z,10.26
2022-11-05T22:10:16.194Z,10.43
2022-11-05T22:12:45.158Z,10.65
2022-11-05T22:15:13.559Z,10.38
2022-11-05T22:17:46.508Z,10.31
2022-11-05T22:20:16.789Z,10.76
2022-11-05T22:22:44.819Z,10.49
2022-11-05T22:25:14.381Z,10.11
2022-11-05T22:27:43.911Z,10.27
2022-11-05T22:30:13.253Z,10.16
2022-11-05T22:32:41.140Z,10.11
2022-11-05T22:35:09.934Z,9.95
2022-11-05T22:37:39.346Z,10.27
2022-11-05T22:40:08.153Z,9.99
2022-11-05T22:42:36.140Z,10.25
2022-11-05T22:45:04.315Z,10.20
2022-11-05T22:47:32.261Z,10.27
2022-11-05T22:50:00.120Z,10.10
2022-11-05T22:52:28.110Z,10.34
2022-11-05T22:54:57.946Z,9.96
2022-11-05T22:57:25.977Z,10.18
2022-11-05T22:59:53.858Z,10.26
2022-11-05T23:02:21.843Z,10.50
2022-11-05T23:04:51.904Z,10.33
2022-11-05T23:07:37.184Z,10.20
2022-11-05T23:10:24.955Z,10.44
2022-11-05T23:12:53.227Z,10.40
2022-11-05T23:15:35.021Z,10.64
2022-11-05T23:18:20.873Z,10.58
2022-11-05T23:21:06.208Z,10.80
2022-11-05T23:23:51.445Z,10.91
2022-11-05T23:26:37.989Z,10.97
2022-11-05T23:29:05.942Z,11.09
2022-11-05T23:31:51.090Z,11.09
2022-11-05T23:34:18.997Z,11.11
2022-11-05T23:37:04.414Z,11.05
2022-11-05T23:39:32.365Z,11.05
2022-11-05T23:42:19.545Z,10.82
2022-11-05T23:45:04.878Z,10.56
2022-11-05T23:47:50.317Z,10.80
2022-11-05T23:50:18.367Z,11.01
2022-11-05T23:52:46.271Z,10.99
2022-11-05T23:55:14.380Z,10.65
2022-11-05T23:57:43.626Z,10.74
